Time;durP1;ratioP1;P1;durP2;ratioP2;P2;SDS_P1;SDS_P2;PMS_P1;PMS_P2;Temp;Humidity;BMP_temperature;BMP_pressure;BME280_temperature;BME280_humidity;BME280_pressure;Samples;Min_cycle;Max_cycle;Signal;HPM_P1;HPM_P2
2022/05/25 00:01:42;;;;;;;;;14.75;13.75;;;;;-142.59;100.00;56100.38;5034037;28;49525;-62
2022/05/25 00:04:08;;;;;;;;;17.00;17.00;;;;;-142.59;100.00;56100.38;5033687;28;50216;-63
2022/05/25 00:06:34;;;;;;;;;17.25;14.75;;;;;-142.59;100.00;56100.38;5033647;28;49764;-63
2022/05/25 00:08:59;;;;;;;;;16.50;13.75;;;;;-142.59;100.00;56100.38;5033934;28;49811;-63
2022/05/25 00:11:24;;;;;;;;;13.00;13.00;;;;;-142.59;100.00;56100.38;5032898;28;50058;-62
2022/05/25 00:13:50;;;;;;;;;19.75;15.00;;;;;-142.59;100.00;56100.38;5033575;28;49724;-62
2022/05/25 00:16:16;;;;;;;;;12.50;12.00;;;;;-142.59;100.00;56100.38;5033597;28;49991;-62
2022/05/25 00:19:58;;;;;;;;;11.50;10.00;;;;;-142.59;100.00;56100.38;5033860;28;49780;-62
2022/05/25 00:21:27;;;;;;;;;7.00;6.50;;;;;-142.59;100.00;56100.38;5033361;28;49873;-62
2022/05/25 00:23:53;;;;;;;;;12.75;11.00;;;;;-142.59;100.00;56100.38;5033466;28;50464;-62
2022/05/25 00:26:18;;;;;;;;;7.00;7.00;;;;;-142.59;100.00;56100.38;5033481;28;49749;-62
2022/05/25 00:28:43;;;;;;;;;7.75;6.00;;;;;-142.59;100.00;56100.38;5033724;28;49772;-62
2022/05/25 00:31:09;;;;;;;;;5.00;4.25;;;;;-142.59;100.00;56100.38;5033539;28;50285;-62
2022/05/25 00:33:34;;;;;;;;;6.50;5.00;;;;;-142.59;100.00;56100.38;5015486;28;53459;-62
2022/05/25 00:36:00;;;;;;;;;4.75;4.75;;;;;-142.59;100.00;56100.38;5033204;28;49580;-62
2022/05/25 00:38:25;;;;;;;;;7.00;6.00;;;;;-142.59;100.00;56100.38;5033736;28;49762;-63
2022/05/25 00:40:50;;;;;;;;;10.00;6.25;;;;;-142.59;100.00;56100.38;5033029;28;50086;-63
2022/05/25 00:43:16;;;;;;;;;14.25;12.00;;;;;-142.59;100.00;56100.38;5033289;28;50070;-62
2022/05/25 00:45:51;;;;;;;;;12.00;10.00;;;;;-142.59;100.00;56100.38;5033396;28;49691;-62
2022/05/25 00:48:27;;;;;;;;;16.25;13.75;;;;;-142.59;100.00;56100.38;5033420;28;49729;-62
2022/05/25 00:53:38;;;;;;;;;13.00;11.00;;;;;-142.59;100.00;56100.38;5032989;28;49714;-63
2022/05/25 00:56:07;;;;;;;;;12.00;10.50;;;;;-142.59;100.00;56100.38;5033073;28;49719;-62
2022/05/25 00:58:34;;;;;;;;;9.75;8.25;;;;;-142.59;100.00;56100.38;5032890;28;49787;-62
2022/05/25 01:01:00;;;;;;;;;10.00;7.50;;;;;-142.59;100.00;56100.38;5033271;28;49725;-63
2022/05/25 01:03:26;;;;;;;;;7.00;6.50;;;;;-142.59;100.00;56100.38;5032549;28;49717;-63
2022/05/25 01:06:15;;;;;;;;;7.50;7.50;;;;;-142.59;100.00;56100.38;5032761;28;49800;-62
2022/05/25 01:08:58;;;;;;;;;7.25;6.50;;;;;-142.59;100.00;56100.38;4991918;28;49826;-62
2022/05/25 01:11:29;;;;;;;;;6.75;6.75;;;;;-142.59;100.00;56100.38;5033164;28;49906;-62
2022/05/25 01:14:25;;;;;;;;;5.75;5.50;;;;;-142.59;100.00;56100.38;5015095;28;52327;-62
2022/05/25 01:17:13;;;;;;;;;7.00;7.00;;;;;-142.59;100.00;56100.38;5033246;28;49737;-63
2022/05/25 01:19:50;;;;;;;;;7.00;7.00;;;;;-142.59;100.00;56100.38;5032799;28;49842;-61
2022/05/25 01:22:37;;;;;;;;;9.25;6.00;;;;;-142.59;100.00;56100.38;5032873;28;49713;-62
2022/05/25 01:25:11;;;;;;;;;7.25;7.25;;;;;-142.59;100.00;56100.38;5032570;28;49840;-62
2022/05/25 01:27:38;;;;;;;;;6.50;6.50;;;;;-142.59;100.00;56100.38;5032758;28;49720;-62
2022/05/25 01:30:16;;;;;;;;;7.00;7.00;;;;;-142.59;100.00;56100.38;5032767;28;49809;-63
2022/05/25 01:33:05;;;;;;;;;6.75;6.00;;;;;-142.59;100.00;56100.38;5032666;28;49870;-62
2022/05/25 01:35:48;;;;;;;;;7.25;6.50;;;;;-142.59;100.00;56100.38;5032252;28;50474;-64
2022/05/25 01:38:28;;;;;;;;;5.75;5.00;;;;;-142.59;100.00;56100.38;5032804;28;49679;-62
2022/05/25 01:41:29;;;;;;;;;9.25;7.25;;;;;-142.59;100.00;56100.38;5032614;28;49816;-62
2022/05/25 01:44:01;;;;;;;;;4.75;4.00;;;;;-142.59;100.00;56100.38;5006779;28;49714;-62
2022/05/25 01:46:39;;;;;;;;;3.75;3.00;;;;;-142.59;100.00;56100.38;5013189;28;50525;-62
2022/05/25 01:49:11;;;;;;;;;2.50;2.50;;;;;-142.59;100.00;56100.38;5009849;28;49840;-61
2022/05/25 01:51:47;;;;;;;;;2.25;2.25;;;;;-142.59;100.00;56100.38;5032065;28;49798;-62
2022/05/25 01:54:17;;;;;;;;;2.00;1.00;;;;;-142.59;100.00;56100.38;5032461;28;49737;-61
2022/05/25 01:56:49;;;;;;;;;1.75;1.75;;;;;-142.59;100.00;56100.38;5032300;28;49729;-62
2022/05/25 01:59:17;;;;;;;;;1.75;1.75;;;;;-142.59;100.00;56100.38;5032482;28;49768;-61
2022/05/25 02:04:44;;;;;;;;;2.00;2.00;;;;;-142.59;100.00;56100.38;5032618;28;49705;-62
2022/05/25 02:07:46;;;;;;;;;2.00;2.00;;;;;-142.59;100.00;56100.38;5031927;28;49760;-61
2022/05/25 02:10:20;;;;;;;;;3.25;3.25;;;;;-142.59;100.00;56100.38;5016083;28;49796;-61
2022/05/25 02:13:03;;;;;;;;;3.00;2.00;;;;;-142.59;100.00;56100.38;5035960;28;49824;-62
2022/05/25 02:15:42;;;;;;;;;3.00;2.25;;;;;-142.59;100.00;56100.38;5035865;28;49867;-63
2022/05/25 02:18:16;;;;;;;;;1.00;1.00;;;;;-142.59;100.00;56100.38;5035512;28;51271;-62
2022/05/25 02:20:56;;;;;;;;;3.50;3.50;;;;;-142.59;100.00;56100.38;5035248;28;49641;-62
2022/05/25 02:23:42;;;;;;;;;1.50;1.50;;;;;-142.59;100.00;56100.38;5035504;28;49623;-62
2022/05/25 02:26:23;;;;;;;;;2.00;2.00;;;;;-142.59;100.00;56100.38;5035864;28;49695;-62
2022/05/25 02:29:09;;;;;;;;;1.00;1.00;;;;;-142.59;100.00;56100.38;5035329;28;49839;-62
2022/05/25 02:31:44;;;;;;;;;1.25;1.00;;;;;-142.59;100.00;56100.38;5035398;28;49702;-62
2022/05/25 02:34:13;;;;;;;;;2.00;2.00;;;;;-142.59;100.00;56100.38;5035385;28;49754;-62
2022/05/25 02:36:40;;;;;;;;;1.00;1.00;;;;;-142.59;100.00;56100.38;5029026;28;49610;-65
2022/05/25 02:39:09;;;;;;;;;1.00;1.00;;;;;-142.59;100.00;56100.38;5029078;28;50484;-62
2022/05/25 02:41:42;;;;;;;;;1.00;1.00;;;;;-142.59;100.00;56100.38;5035281;28;49753;-62
2022/05/25 02:44:08;;;;;;;;;1.50;1.50;;;;;-142.59;100.00;56100.38;5029893;28;49832;-62
2022/05/25 02:46:34;;;;;;;;;2.00;2.00;;;;;-142.59;100.00;56100.38;5035250;28;49693;-61
2022/05/25 02:48:59;;;;;;;;;1.50;1.50;;;;;-142.59;100.00;56100.38;5034842;28;49666;-62
2022/05/25 02:51:25;;;;;;;;;1.75;1.75;;;;;-142.59;100.00;56100.38;5035154;28;49636;-62
2022/05/25 02:53:50;;;;;;;;;1.25;1.25;;;;;-142.59;100.00;56100.38;5017727;28;49753;-61
2022/05/25 02:56:16;;;;;;;;;0.50;0.50;;;;;-142.59;100.00;56100.38;5035252;28;49830;-62
2022/05/25 02:58:41;;;;;;;;;1.00;1.00;;;;;-142.59;100.00;56100.38;5034929;28;50549;-62
2022/05/25 03:01:07;;;;;;;;;1.00;1.00;;;;;-142.59;100.00;56100.38;5034974;28;49837;-62
2022/05/25 03:03:34;;;;;;;;;3.75;3.75;;;;;-142.59;100.00;56100.38;5034828;28;50168;-62
2022/05/25 03:05:59;;;;;;;;;1.75;1.75;;;;;-142.59;100.00;56100.38;5034941;28;50211;-62
2022/05/25 03:08:26;;;;;;;;;2.25;2.25;;;;;-142.59;100.00;56100.38;5034773;28;49970;-61
2022/05/25 03:10:51;;;;;;;;;2.75;2.75;;;;;-142.59;100.00;56100.38;5034278;28;49695;-62
2022/05/25 03:13:17;;;;;;;;;3.00;3.00;;;;;-142.59;100.00;56100.38;5034745;28;49734;-62
2022/05/25 03:15:42;;;;;;;;;2.75;2.75;;;;;-142.59;100.00;56100.38;5034895;28;49903;-62
2022/05/25 03:18:07;;;;;;;;;2.00;2.00;;;;;-142.59;100.00;56100.38;5034620;28;52906;-62
2022/05/25 03:20:33;;;;;;;;;2.50;2.50;;;;;-142.59;100.00;56100.38;5034158;28;49689;-72
2022/05/25 03:22:58;;;;;;;;;3.50;3.00;;;;;-142.59;100.00;56100.38;5034780;28;49858;-66
2022/05/25 03:25:24;;;;;;;;;2.00;2.00;;;;;-142.59;100.00;56100.38;5034653;28;49844;-72
2022/05/25 03:27:50;;;;;;;;;1.75;1.00;;;;;-142.59;100.00;56100.38;5034562;28;50542;-71
2022/05/25 03:30:17;;;;;;;;;4.25;2.00;;;;;-142.59;100.00;56100.38;5034596;28;50682;-72
2022/05/25 03:32:42;;;;;;;;;2.50;2.50;;;;;-142.59;100.00;56100.38;5034328;28;49713;-70
2022/05/25 03:35:10;;;;;;;;;2.75;2.75;;;;;-142.59;100.00;56100.38;5033919;28;49662;-62
2022/05/25 03:37:36;;;;;;;;;3.50;3.50;;;;;-142.59;100.00;56100.38;5034290;28;50465;-69
2022/05/25 03:40:09;;;;;;;;;2.75;2.75;;;;;-142.59;100.00;56100.38;5034341;28;49627;-64
2022/05/25 03:42:35;;;;;;;;;2.00;2.00;;;;;-142.59;100.00;56100.38;5034376;28;49800;-62
2022/05/25 03:45:02;;;;;;;;;4.00;3.00;;;;;-142.59;100.00;56100.38;5034362;28;49785;-62
2022/05/25 03:47:27;;;;;;;;;3.50;3.50;;;;;-142.59;100.00;56100.38;5034175;28;50523;-61
2022/05/25 03:49:52;;;;;;;;;2.00;2.00;;;;;-142.59;100.00;56100.38;5034021;28;50337;-61
2022/05/25 03:52:22;;;;;;;;;4.00;4.00;;;;;-142.59;100.00;56100.38;5033985;28;49665;-62
2022/05/25 03:54:47;;;;;;;;;3.00;3.00;;;;;-142.59;100.00;56100.38;5028630;28;49696;-62
2022/05/25 03:57:13;;;;;;;;;3.75;3.75;;;;;-142.59;100.00;56100.38;5034338;28;51112;-62
2022/05/25 03:59:38;;;;;;;;;4.00;4.00;;;;;-142.59;100.00;56100.38;5033765;28;54511;-72
2022/05/25 04:02:04;;;;;;;;;2.00;2.00;;;;;-142.59;100.00;56100.38;5034062;28;49799;-65
2022/05/25 04:04:29;;;;;;;;;4.75;4.00;;;;;-142.59;100.00;56100.38;5034155;28;50453;-65
2022/05/25 04:06:54;;;;;;;;;4.00;4.00;;;;;-142.59;100.00;56100.38;5015495;28;49787;-73
2022/05/25 04:09:20;;;;;;;;;3.75;3.75;;;;;-142.59;100.00;56100.38;5014722;28;49667;-69
2022/05/25 04:11:45;;;;;;;;;3.75;2.75;;;;;-142.59;100.00;56100.38;5014950;28;49674;-63
2022/05/25 04:14:15;;;;;;;;;3.50;2.25;;;;;-142.59;100.00;56100.38;5014956;28;50385;-61
2022/05/25 04:16:40;;;;;;;;;3.25;2.75;;;;;-142.59;100.00;56100.38;5014039;28;50477;-62
2022/05/25 04:19:05;;;;;;;;;3.00;3.00;;;;;-142.59;100.00;56100.38;5014719;28;49536;-60
2022/05/25 04:21:31;;;;;;;;;4.75;3.25;;;;;-142.59;100.00;56100.38;5014239;28;49682;-61
2022/05/25 04:23:56;;;;;;;;;4.75;4.00;;;;;-142.59;100.00;56100.38;5014756;28;49859;-64
2022/05/25 04:26:22;;;;;;;;;5.50;4.00;;;;;-142.59;100.00;56100.38;5013710;28;49748;-61
2022/05/25 04:28:47;;;;;;;;;4.75;3.00;;;;;-142.59;100.00;56100.38;5014479;28;49661;-60
2022/05/25 04:31:12;;;;;;;;;5.00;5.00;;;;;-142.59;100.00;56100.38;5014638;28;49734;-60
2022/05/25 04:33:40;;;;;;;;;4.00;4.00;;;;;-142.59;100.00;56100.38;5013742;28;49962;-60
2022/05/25 04:36:06;;;;;;;;;4.75;4.75;;;;;-142.59;100.00;56100.38;5013809;28;49757;-59
2022/05/25 04:38:31;;;;;;;;;5.00;5.00;;;;;-142.59;100.00;56100.38;5014376;28;49682;-60
2022/05/25 04:40:57;;;;;;;;;4.75;4.75;;;;;-142.59;100.00;56100.38;5014357;28;49822;-60
2022/05/25 04:43:23;;;;;;;;;3.00;3.00;;;;;-142.59;100.00;56100.38;5014404;28;49796;-60
2022/05/25 04:45:53;;;;;;;;;4.75;4.75;;;;;-142.59;100.00;56100.38;5014081;28;49792;-60
2022/05/25 04:48:23;;;;;;;;;3.75;3.75;;;;;-142.59;100.00;56100.38;5013569;28;49942;-59
2022/05/25 04:50:49;;;;;;;;;4.75;4.00;;;;;-142.59;100.00;56100.38;5013187;28;49658;-69
2022/05/25 04:53:17;;;;;;;;;6.50;5.25;;;;;-142.59;100.00;56100.38;5014480;28;49892;-62
2022/05/25 04:58:29;;;;;;;;;3.75;3.75;;;;;-142.59;100.00;56100.38;5014013;28;49940;-61
2022/05/25 05:00:55;;;;;;;;;6.25;5.75;;;;;-142.59;100.00;56100.38;5013750;28;49766;-61
2022/05/25 05:03:23;;;;;;;;;5.00;4.25;;;;;-142.59;100.00;56100.38;5014172;28;49738;-62
2022/05/25 05:05:49;;;;;;;;;5.75;4.25;;;;;-142.59;100.00;56100.38;5013196;28;50580;-62
2022/05/25 05:08:15;;;;;;;;;6.00;6.00;;;;;-142.59;100.00;56100.38;5013891;28;49530;-62
2022/05/25 05:10:41;;;;;;;;;7.00;6.00;;;;;-142.59;100.00;56100.38;5013949;28;49869;-66
2022/05/25 05:13:07;;;;;;;;;4.50;4.50;;;;;-142.59;100.00;56100.38;5014038;28;49831;-61
2022/05/25 05:15:38;;;;;;;;;4.75;4.75;;;;;-142.59;100.00;56100.38;5013455;28;50536;-61
2022/05/25 05:18:04;;;;;;;;;4.75;4.00;;;;;-142.59;100.00;56100.38;5013723;28;49754;-61
2022/05/25 05:20:30;;;;;;;;;6.50;5.75;;;;;-142.59;100.00;56100.38;5013433;28;49671;-61
2022/05/25 05:22:55;;;;;;;;;6.00;5.00;;;;;-142.59;100.00;56100.38;5013750;28;49769;-62
2022/05/25 05:25:21;;;;;;;;;4.00;4.00;;;;;-142.59;100.00;56100.38;5013410;28;50387;-61
2022/05/25 05:27:46;;;;;;;;;6.00;6.00;;;;;-142.59;100.00;56100.38;5013559;28;49772;-62
2022/05/25 05:30:17;;;;;;;;;4.25;4.25;;;;;-142.59;100.00;56100.38;4995762;28;49833;-64
2022/05/25 05:32:42;;;;;;;;;6.00;6.00;;;;;-142.59;100.00;56100.38;5013742;28;49951;-62
2022/05/25 05:35:08;;;;;;;;;8.25;7.00;;;;;-142.59;100.00;56100.38;5013138;28;50504;-61
2022/05/25 05:37:43;;;;;;;;;3.25;3.25;;;;;-142.59;100.00;56100.38;5013427;28;49539;-61
2022/05/25 05:40:10;;;;;;;;;5.50;5.50;;;;;-142.59;100.00;56100.38;5013447;28;49660;-68
2022/05/25 05:42:39;;;;;;;;;5.75;5.75;;;;;-142.59;100.00;56100.38;5013497;28;49839;-63
2022/05/25 05:45:09;;;;;;;;;4.25;3.00;;;;;-142.59;100.00;56100.38;5014358;28;49980;-69
2022/05/25 05:47:45;;;;;;;;;6.00;6.00;;;;;-142.59;100.00;56100.38;5017407;28;49532;-63
2022/05/25 05:50:11;;;;;;;;;6.25;5.00;;;;;-142.59;100.00;56100.38;5026591;28;49507;-66
2022/05/25 05:52:36;;;;;;;;;4.75;4.75;;;;;-142.59;100.00;56100.38;5035924;28;49819;-62
2022/05/25 05:55:05;;;;;;;;;3.75;3.00;;;;;-142.59;100.00;56100.38;5025663;28;50438;-63
2022/05/25 05:57:34;;;;;;;;;4.00;3.00;;;;;-142.59;100.00;56100.38;5016966;28;49675;-66
2022/05/25 05:59:59;;;;;;;;;2.25;2.25;;;;;-142.59;100.00;56100.38;5026755;28;49795;-71
2022/05/25 06:02:25;;;;;;;;;4.50;4.00;;;;;-142.59;100.00;56100.38;5024593;28;49782;-63
2022/05/25 06:04:50;;;;;;;;;4.25;2.75;;;;;-142.59;100.00;56100.38;5018757;28;50292;-63
2022/05/25 06:07:16;;;;;;;;;4.00;4.00;;;;;-142.59;100.00;56100.38;5016457;28;49872;-66
2022/05/25 06:09:41;;;;;;;;;3.00;2.00;;;;;-142.59;100.00;56100.38;5024662;28;49918;-65
2022/05/25 06:12:07;;;;;;;;;5.00;3.00;;;;;-142.59;100.00;56100.38;5025443;28;51251;-69
2022/05/25 06:14:32;;;;;;;;;4.50;4.50;;;;;-142.59;100.00;56100.38;5016433;28;49877;-64
2022/05/25 06:19:41;;;;;;;;;3.00;3.00;;;;;-142.59;100.00;56100.38;5018777;28;49942;-67
2022/05/25 06:22:09;;;;;;;;;2.50;2.50;;;;;-142.59;100.00;56100.38;5022791;28;50019;-65
2022/05/25 06:24:39;;;;;;;;;4.00;2.75;;;;;-142.59;100.00;56100.38;5022805;28;50448;-65
2022/05/25 06:27:08;;;;;;;;;2.50;2.50;;;;;-142.59;100.00;56100.38;5019506;28;49881;-62
2022/05/25 06:29:37;;;;;;;;;5.75;5.00;;;;;-142.59;100.00;56100.38;5020670;28;49740;-64
2022/05/25 06:32:04;;;;;;;;;2.75;2.50;;;;;-142.59;100.00;56100.38;5020835;28;49797;-61
2022/05/25 06:34:29;;;;;;;;;5.50;4.75;;;;;-142.59;100.00;56100.38;5031310;28;49819;-63
2022/05/25 06:36:54;;;;;;;;;3.00;3.00;;;;;-142.59;100.00;56100.38;5016468;28;50001;-62
2022/05/25 06:39:20;;;;;;;;;2.50;2.50;;;;;-142.59;100.00;56100.38;5020776;28;49746;-62
2022/05/25 06:41:45;;;;;;;;;4.25;3.50;;;;;-142.59;100.00;56100.38;5022992;28;49688;-62
2022/05/25 06:44:10;;;;;;;;;4.00;2.75;;;;;-142.59;100.00;56100.38;5025632;28;49709;-62
2022/05/25 06:46:36;;;;;;;;;2.00;2.00;;;;;-142.59;100.00;56100.38;5023465;28;49810;-66
2022/05/25 06:49:01;;;;;;;;;3.00;3.00;;;;;-142.59;100.00;56100.38;5035179;28;49809;-62
2022/05/25 06:51:30;;;;;;;;;3.00;2.00;;;;;-142.59;100.00;56100.38;5035447;28;50241;-69
2022/05/25 06:53:56;;;;;;;;;1.75;1.00;;;;;-142.59;100.00;56100.38;5034572;28;49842;-68
2022/05/25 06:56:24;;;;;;;;;2.75;2.75;;;;;-142.59;100.00;56100.38;5034623;28;49785;-69
2022/05/25 06:58:52;;;;;;;;;2.25;2.25;;;;;-142.59;100.00;56100.38;5028447;28;49650;-70
2022/05/25 07:01:18;;;;;;;;;2.25;2.25;;;;;-142.59;100.00;56100.38;5026761;28;49757;-63
2022/05/25 07:03:44;;;;;;;;;1.25;1.25;;;;;-142.59;100.00;56100.38;5012750;28;49895;-63
2022/05/25 07:06:11;;;;;;;;;1.00;1.00;;;;;-142.59;100.00;56100.38;5013311;28;49709;-62
2022/05/25 07:08:36;;;;;;;;;3.00;1.75;;;;;-142.59;100.00;56100.38;5013193;28;49786;-61
2022/05/25 07:11:02;;;;;;;;;1.00;0.50;;;;;-142.59;100.00;56100.38;5013610;28;49911;-62
2022/05/25 07:13:29;;;;;;;;;3.50;1.00;;;;;-142.59;100.00;56100.38;5013402;28;49656;-62
2022/05/25 07:16:01;;;;;;;;;1.00;1.00;;;;;-142.59;100.00;56100.38;5015360;28;49777;-68
2022/05/25 07:18:28;;;;;;;;;2.00;2.00;;;;;-142.59;100.00;56100.38;5015494;28;49894;-63
2022/05/25 07:20:53;;;;;;;;;2.00;1.00;;;;;-142.59;100.00;56100.38;5015766;28;49758;-63
2022/05/25 07:23:19;;;;;;;;;1.00;1.00;;;;;-142.59;100.00;56100.38;5015172;28;49749;-62
2022/05/25 07:25:46;;;;;;;;;1.00;1.00;;;;;-142.59;100.00;56100.38;5015398;28;49848;-62
2022/05/25 07:28:12;;;;;;;;;0.00;0.00;;;;;-142.59;100.00;56100.38;5015469;28;49817;-63
2022/05/25 07:30:37;;;;;;;;;0.50;0.50;;;;;-142.59;100.00;56100.38;5015585;28;49846;-63
2022/05/25 07:33:02;;;;;;;;;1.75;0.75;;;;;-142.59;100.00;56100.38;5014567;28;55964;-64
2022/05/25 07:35:28;;;;;;;;;2.00;1.00;;;;;-142.59;100.00;56100.38;5015409;28;49849;-64
2022/05/25 07:37:55;;;;;;;;;1.00;1.00;;;;;-142.59;100.00;56100.38;5015186;28;49583;-64
2022/05/25 07:40:39;;;;;;;;;0.50;0.25;;;;;-142.59;100.00;56100.38;5015146;28;49884;-65
2022/05/25 07:43:11;;;;;;;;;0.25;0.25;;;;;-142.59;100.00;56100.38;5020662;28;50939;-67
2022/05/25 07:45:36;;;;;;;;;1.25;1.25;;;;;-142.59;100.00;56100.38;5021732;28;49764;-64
2022/05/25 07:48:02;;;;;;;;;0.00;0.00;;;;;-142.59;100.00;56100.38;5036620;28;50003;-64
2022/05/25 07:50:28;;;;;;;;;1.00;1.00;;;;;-142.59;100.00;56100.38;5040194;28;50408;-65
2022/05/25 07:52:57;;;;;;;;;0.00;0.00;;;;;-142.59;100.00;56100.38;5023065;28;50630;-64
2022/05/25 07:55:22;;;;;;;;;1.00;1.00;;;;;-142.59;100.00;56100.38;5015033;28;49783;-66
2022/05/25 07:57:48;;;;;;;;;0.00;0.00;;;;;-142.59;100.00;56100.38;5014834;28;49674;-70
2022/05/25 08:00:15;;;;;;;;;0.00;0.00;;;;;-142.59;100.00;56100.38;5015274;28;49734;-64
2022/05/25 08:05:47;;;;;;;;;2.00;0.00;;;;;-142.59;100.00;56100.38;5014657;28;49880;-65
2022/05/25 08:08:20;;;;;;;;;0.50;0.50;;;;;-142.59;100.00;56100.38;5026837;28;49905;-63
2022/05/25 08:11:00;;;;;;;;;1.00;0.00;;;;;-142.59;100.00;56100.38;5022672;28;49672;-65
2022/05/25 08:13:26;;;;;;;;;1.75;0.25;;;;;-142.59;100.00;56100.38;5020471;28;51550;-69
2022/05/25 08:15:52;;;;;;;;;1.00;1.00;;;;;-142.59;100.00;56100.38;5029487;28;49797;-65
2022/05/25 08:18:19;;;;;;;;;0.75;0.75;;;;;-142.59;100.00;56100.38;5017258;28;49682;-71
2022/05/25 08:20:44;;;;;;;;;0.00;0.00;;;;;-142.59;100.00;56100.38;5025248;28;49759;-66
2022/05/25 08:23:14;;;;;;;;;0.00;0.00;;;;;-142.59;100.00;56100.38;5037098;28;49792;-64
2022/05/25 08:25:40;;;;;;;;;0.25;0.00;;;;;-142.59;100.00;56100.38;5016660;28;49839;-64
2022/05/25 08:28:06;;;;;;;;;0.00;0.00;;;;;-142.59;100.00;56100.38;5017171;28;49839;-68
2022/05/25 08:30:34;;;;;;;;;0.00;0.00;;;;;-142.59;100.00;56100.38;5034349;28;49921;-66
2022/05/25 08:33:00;;;;;;;;;0.00;0.00;;;;;-142.59;100.00;56100.38;5017541;28;50526;-64
2022/05/25 08:35:27;;;;;;;;;0.50;0.50;;;;;-142.59;100.00;56100.38;5014289;28;49595;-64
2022/05/25 08:37:53;;;;;;;;;0.75;0.00;;;;;-142.59;100.00;56100.38;5016514;28;49900;-72
2022/05/25 08:40:20;;;;;;;;;0.00;0.00;;;;;-142.59;100.00;56100.38;5015377;28;49740;-70
2022/05/25 08:42:56;;;;;;;;;7.00;2.00;;;;;-142.59;100.00;56100.38;5018577;28;50566;-67
2022/05/25 08:45:27;;;;;;;;;1.00;1.00;;;;;-142.59;100.00;56100.38;5014050;28;49741;-65
2022/05/25 08:47:56;;;;;;;;;0.00;0.00;;;;;-142.59;100.00;56100.38;5017949;28;49855;-72
2022/05/25 08:50:23;;;;;;;;;0.25;0.25;;;;;-142.59;100.00;56100.38;5015891;28;49855;-66
2022/05/25 08:52:48;;;;;;;;;0.25;0.25;;;;;-142.59;100.00;56100.38;5018251;28;50471;-69
2022/05/25 08:55:37;;;;;;;;;0.00;0.00;;;;;-142.59;100.00;56100.38;5018253;28;50013;-70
2022/05/25 08:58:03;;;;;;;;;0.00;0.00;;;;;-142.59;100.00;56100.38;5017776;28;49706;-67
2022/05/25 09:00:28;;;;;;;;;0.25;0.00;;;;;-142.59;100.00;56100.38;5018212;28;49750;-64
2022/05/25 09:03:03;;;;;;;;;0.00;0.00;;;;;-142.59;100.00;56100.38;5025084;28;50285;-65
2022/05/25 09:05:40;;;;;;;;;0.75;0.00;;;;;-142.59;100.00;56100.38;5022621;28;49832;-65
2022/05/25 09:08:58;;;;;;;;;1.00;0.00;;;;;-142.59;100.00;56100.38;5037172;28;50205;-63
2022/05/25 09:11:29;;;;;;;;;0.00;0.00;;;;;-142.59;100.00;56100.38;4952100;28;50016;-70
2022/05/25 09:14:04;;;;;;;;;0.00;0.00;;;;;-142.59;100.00;56100.38;4950084;28;50042;-71
2022/05/25 09:16:32;;;;;;;;;0.00;0.00;;;;;-142.59;100.00;56100.38;4992581;28;49950;-69
2022/05/25 09:19:05;;;;;;;;;0.00;0.00;;;;;-142.59;100.00;56100.38;5013423;28;49737;-71
2022/05/25 09:21:36;;;;;;;;;0.00;0.00;;;;;-142.59;100.00;56100.38;5013855;28;49892;-65
2022/05/25 09:24:08;;;;;;;;;0.00;0.00;;;;;-142.59;100.00;56100.38;5013523;28;50382;-66
2022/05/25 09:26:34;;;;;;;;;0.00;0.00;;;;;-142.59;100.00;56100.38;5000953;28;49842;-66
2022/05/25 09:29:04;;;;;;;;;0.00;0.00;;;;;-142.59;100.00;56100.38;5021073;28;49782;-71
2022/05/25 09:31:36;;;;;;;;;0.00;0.00;;;;;-142.59;100.00;56100.38;5013659;28;49915;-70
2022/05/25 09:34:08;;;;;;;;;1.00;0.00;;;;;-142.59;100.00;56100.38;5033662;28;50579;-70
2022/05/25 09:36:41;;;;;;;;;0.00;0.00;;;;;-142.59;100.00;56100.38;5025363;28;49876;-68
2022/05/25 09:39:15;;;;;;;;;0.00;0.00;;;;;-142.59;100.00;56100.38;5014525;28;50070;-72
2022/05/25 09:41:45;;;;;;;;;1.00;0.00;;;;;-142.59;100.00;56100.38;5013490;28;49931;-72
2022/05/25 09:44:16;;;;;;;;;0.00;0.00;;;;;-142.59;100.00;56100.38;5013114;28;50614;-65
2022/05/25 09:46:56;;;;;;;;;0.00;0.00;;;;;-142.59;100.00;56100.38;5018368;28;49985;-69
2022/05/25 09:49:34;;;;;;;;;1.00;1.00;;;;;-142.59;100.00;56100.38;5013335;28;49710;-64
2022/05/25 09:52:04;;;;;;;;;0.00;0.00;;;;;-142.59;100.00;56100.38;5017934;28;49795;-71
2022/05/25 09:54:34;;;;;;;;;0.00;0.00;;;;;-142.59;100.00;56100.38;5016261;28;51023;-66
2022/05/25 09:57:07;;;;;;;;;0.25;0.00;;;;;-142.59;100.00;56100.38;5013430;28;49868;-72
2022/05/25 09:59:41;;;;;;;;;0.00;0.00;;;;;-142.59;100.00;56100.38;5026213;28;49756;-66
2022/05/25 10:02:56;;;;;;;;;1.00;1.00;;;;;-142.59;100.00;56100.38;5027620;28;50183;-67
2022/05/25 10:05:27;;;;;;;;;0.00;0.00;;;;;-142.59;100.00;56100.38;5022874;28;49848;-67
2022/05/25 10:08:03;;;;;;;;;1.00;0.00;;;;;-142.59;100.00;56100.38;5022942;28;49881;-66
2022/05/25 10:10:32;;;;;;;;;0.00;0.00;;;;;-142.59;100.00;56100.38;5022903;28;49666;-78
2022/05/25 10:13:20;;;;;;;;;1.00;1.00;;;;;-142.59;100.00;56100.38;5013297;28;49869;-64
2022/05/25 10:15:51;;;;;;;;;0.00;0.00;;;;;-142.59;100.00;56100.38;5012636;28;49815;-64
2022/05/25 10:18:32;;;;;;;;;0.00;0.00;;;;;-142.59;100.00;56100.38;5013101;28;49721;-65
2022/05/25 10:20:57;;;;;;;;;0.00;0.00;;;;;-142.59;100.00;56100.38;5026270;28;49667;-80
2022/05/25 10:23:25;;;;;;;;;1.00;1.00;;;;;-142.59;100.00;56100.38;5032263;28;49581;-66
2022/05/25 10:25:52;;;;;;;;;2.00;1.00;;;;;-142.59;100.00;56100.38;5012807;28;49650;-71
2022/05/25 10:28:23;;;;;;;;;0.00;0.00;;;;;-142.59;100.00;56100.38;5019166;28;49659;-72
2022/05/25 10:37:08;;;;;;;;;1.00;0.00;;;;;-142.59;100.00;56100.38;5033203;28;50152;-67
2022/05/25 10:39:37;;;;;;;;;1.00;0.50;;;;;-142.59;100.00;56100.38;5035232;28;49938;-66
2022/05/25 10:42:21;;;;;;;;;0.00;0.00;;;;;-142.59;100.00;56100.38;5036703;28;49722;-64
2022/05/25 10:45:08;;;;;;;;;0.00;0.00;;;;;-142.59;100.00;56100.38;5029445;28;49750;-65
2022/05/25 10:47:54;;;;;;;;;0.00;0.00;;;;;-142.59;100.00;56100.38;5031227;28;49721;-67
2022/05/25 10:50:46;;;;;;;;;0.00;0.00;;;;;-142.59;100.00;56100.38;5024288;28;49770;-64
2022/05/25 10:53:43;;;;;;;;;0.25;0.25;;;;;-142.59;100.00;56100.38;5012552;28;49628;-70
2022/05/25 10:56:27;;;;;;;;;0.00;0.00;;;;;-142.59;100.00;56100.38;5016200;28;49784;-65
2022/05/25 10:59:08;;;;;;;;;0.00;0.00;;;;;-142.59;100.00;56100.38;5015507;28;50263;-71
2022/05/25 11:01:55;;;;;;;;;0.00;0.00;;;;;-142.59;100.00;56100.38;5015955;28;49738;-70
2022/05/25 11:04:35;;;;;;;;;1.00;1.00;;;;;-142.59;100.00;56100.38;5015901;28;49892;-72
2022/05/25 11:07:06;;;;;;;;;0.00;0.00;;;;;-142.59;100.00;56100.38;5028797;28;49936;-71
2022/05/25 11:10:09;;;;;;;;;0.00;0.00;;;;;-142.59;100.00;56100.38;5016950;28;51423;-68
2022/05/25 11:13:04;;;;;;;;;0.25;0.25;;;;;-142.59;100.00;56100.38;4977297;28;49761;-74
2022/05/25 11:15:41;;;;;;;;;0.00;0.00;;;;;-142.59;100.00;56100.38;5002404;28;49891;-75
2022/05/25 11:18:25;;;;;;;;;1.00;0.00;;;;;-142.59;100.00;56100.38;5015609;28;49622;-75
2022/05/25 11:21:27;;;;;;;;;0.00;0.00;;;;;-142.59;100.00;56100.38;5019012;28;50687;-77
2022/05/25 11:24:11;;;;;;;;;0.00;0.00;;;;;-142.59;100.00;56100.38;4996848;28;49876;-74
2022/05/25 11:27:01;;;;;;;;;0.00;0.00;;;;;-142.59;100.00;56100.38;5015104;28;49727;-74
2022/05/25 11:29:50;;;;;;;;;2.00;0.00;;;;;-142.59;100.00;56100.38;5027715;28;50078;-72
2022/05/25 11:32:30;;;;;;;;;0.00;0.00;;;;;-142.59;100.00;56100.38;5028881;28;50574;-74
2022/05/25 11:35:27;;;;;;;;;0.50;0.50;;;;;-142.59;100.00;56100.38;5028065;28;49806;-75
2022/05/25 11:38:04;;;;;;;;;2.00;1.00;;;;;-142.59;100.00;56100.38;5029021;28;49686;-74
2022/05/25 11:41:06;;;;;;;;;2.75;2.00;;;;;-142.59;100.00;56100.38;5016907;28;50089;-75
2022/05/25 11:43:56;;;;;;;;;1.25;0.25;;;;;-142.59;100.00;56100.38;5019483;28;49623;-69
2022/05/25 11:46:44;;;;;;;;;0.75;0.75;;;;;-142.59;100.00;56100.38;5017289;28;49655;-69
2022/05/25 11:49:46;;;;;;;;;1.50;0.50;;;;;-142.59;100.00;56100.38;5018421;28;49867;-69